Baton Rouge, LA (70808)

11:34 PM CDT on October 01, 2014 (GMT -0500)
Pollard Estates | Change Station
CLOSE
Current Station
Personal Weather Station
Location: Baton Rouge, LA
Elevation: 26 ft
Nearby Weather Stations

Elev 26 ft 30.41 °N, 91.13 °W | Updated 4 seconds ago

Partly Cloudy
Partly Cloudy
76.8 °F
Feels Like 77 °F
N
0.0
Wind Variable Wind from North
Gusts 0.0 mph

Today
High -- | Low -- °F
--% Chance of Precip.
Yesterday
High -- | Low -- °F
Precip. -- in
6:58 AM 6:49 PM
First Quarter, 54% visible
Pressure 29.93 in
Visibility 10.0 miles
Clouds Few 900 ft
Few 2500 ft
Heat Index 77 °F
Dew Point 77 °F
Humidity 99%
Rainfall 0.00 in
Snow Depth Not available.
UV 0 out of 12
Pollen 7.20 out of 12
PM2.5 Good
Flu Activity Not available.
SPECI KBTR 020414Z AUTO 11005KT 10SM FEW009 FEW025 24/23 A2993 RMK AO2 T02440233 TSNO

More Conditions Fewer Conditions

Pressure 29.93 in
Visibility 10.0 miles
Clouds Few 900 ft
Few 2500 ft
Heat Index 77 °F
Dew Point 77 °F
Humidity 99%
Rainfall 0.00 in
Snow Depth Not available.
UV 0 out of 12
Pollen 7.20 out of 12
PM2.5 Good
Flu Activity Not available.
SPECI KBTR 020414Z AUTO 11005KT 10SM FEW009 FEW025 24/23 A2993 RMK AO2 T02440233 TSNO

More Conditions Fewer Conditions

10-Day Weather Forecast

Almanac

Astronomy

Oct. 01, 2014 Rise Set
Actual Time 6:58 AM CDT 6:49 PM CDT
Civil Twilight 6:34 AM CDT 7:13 PM CDT
Nautical Twilight 6:06 AM CDT 7:41 PM CDT
Astronomical Twilight 5:38 AM CDT 8:09 PM CDT
Moon 1:41 PM CDT (10/1) No Moon Set
Length of Visible Light 12h 39m
Length of Day
11h 51m
Tomorrow will be 1m 49s shorter.
First Quarter, 54% of the Moon is Illuminated
Oct 2
First Quarter
Oct 8
Full
Oct 15
Last Quarter
Oct 23
New
Oct 30
First Quarter

Yesterday's Extremes

State Highs State Lows

Community

WunderPhotos

Upload Photos

1,758,187 photos uploaded!

Nearby

Air Quality

  Air Quality AQ Index Pollutant
Yesterday Good
PM2.5
Yesterday Good
OZONE
Current Good
PM2.5
Wednesday Good
PM2.5
Wednesday Good
OZONE
Thursday Good
PM2.5
Thursday Good
OZONE
Friday Good
PM2.5
Friday Good
OZONE

Snow Depth

Station Depth Elevation
No new snow has been reported.

Earthquake Activity

City Distance Mag. Time & Date
No recent earthquake activity has been reported nearby.
Minimum magnitude displayed is 2.5.

Coastal Water Temperatures

Place Temperature
No Stations Reporting

Nearby Weather Stations